Time;durP1;ratioP1;P1;durP2;ratioP2;P2;SDS_P1;SDS_P2;PMS_P1;PMS_P2;Temp;Humidity;BMP_temperature;BMP_pressure;BME280_temperature;BME280_humidity;BME280_pressure;Samples;Min_cycle;Max_cycle;Signal;HPM_P1;HPM_P2
2022/02/26 00:01:33;;;;;;;36.97;13.55;;;;;;;-0.81;72.90;97171.44;5046221;28;20056;-58
2022/02/26 00:04:00;;;;;;;61.38;21.33;;;;;;;-1.35;72.99;97103.19;5044499;28;20060;-59
2022/02/26 00:06:27;;;;;;;53.90;21.08;;;;;;;-0.51;74.78;97238.97;5045752;28;20075;-57
2022/02/26 00:08:54;;;;;;;44.95;15.23;;;;;;;-0.43;75.31;97239.09;5045922;28;20045;-58
2022/02/26 00:11:21;;;;;;;30.77;13.20;;;;;;;-0.96;75.67;97166.19;5045477;28;20052;-55
2022/02/26 00:13:47;;;;;;;23.13;9.45;;;;;;;-0.53;75.38;97246.59;5043159;28;20065;-60
2022/02/26 00:16:14;;;;;;;29.33;10.27;;;;;;;-1.07;74.95;97165.53;5043940;28;20878;-58
2022/02/26 00:18:41;;;;;;;26.48;9.82;;;;;;;-0.48;75.83;97319.97;5045560;28;20049;-59
2022/02/26 00:21:08;;;;;;;20.20;6.90;;;;;;;-0.90;75.52;97175.91;5045817;28;20053;-55
2022/02/26 00:23:35;;;;;;;15.43;4.85;;;;;;;-0.47;74.67;97235.34;5045261;28;20412;-55
2022/02/26 00:26:03;;;;;;;10.07;3.78;;;;;;;-0.48;74.98;97230.22;5045741;28;20155;-57
2022/02/26 00:28:33;;;;;;;6.95;2.70;;;;;;;-1.09;75.73;97147.94;5045936;28;20080;-59
2022/02/26 00:31:00;;;;;;;11.15;2.85;;;;;;;-0.57;75.11;97235.50;5045638;28;20057;-56
2022/02/26 00:33:27;;;;;;;9.77;3.17;;;;;;;-0.55;75.56;97244.19;5044621;28;20049;-58
2022/02/26 00:35:58;;;;;;;9.85;3.35;;;;;;;-1.06;75.41;97139.97;5043979;28;20057;-55
2022/02/26 00:38:26;;;;;;;8.52;2.90;;;;;;;-0.60;75.66;97229.88;5043940;28;20056;-59
2022/02/26 00:40:53;;;;;;;10.88;3.88;;;;;;;-1.04;75.81;97162.22;5045095;28;20076;-55
2022/02/26 00:43:21;;;;;;;8.80;3.78;;;;;;;-0.81;75.84;97190.47;5044739;28;20045;-56
2022/02/26 00:45:47;;;;;;;10.90;3.40;;;;;;;-0.86;76.32;97196.78;5044676;28;20467;-55
2022/02/26 00:48:14;;;;;;;9.18;3.45;;;;;;;-0.73;76.39;97230.59;5045435;28;20045;-59
2022/02/26 00:50:41;;;;;;;8.50;2.67;;;;;;;-0.94;76.73;97211.03;5045307;28;20045;-56
2022/02/26 00:53:08;;;;;;;8.98;2.50;;;;;;;-0.80;76.06;97236.38;5043311;28;20512;-55
2022/02/26 00:55:35;;;;;;;7.50;2.78;;;;;;;-0.99;77.09;97232.03;5043067;28;20045;-55
2022/02/26 00:58:03;;;;;;;10.63;3.15;;;;;;;-0.97;77.37;97236.09;5044877;28;20064;-58
2022/02/26 01:00:30;;;;;;;9.75;4.20;;;;;;;-0.92;76.64;97243.34;5044642;28;20053;-55
2022/02/26 01:02:57;;;;;;;11.80;3.88;;;;;;;-0.96;75.54;97253.19;5044816;28;20059;-55
2022/02/26 01:05:24;;;;;;;28.35;10.88;;;;;;;-1.25;75.21;97214.44;5043312;28;20180;-58
2022/02/26 01:07:51;;;;;;;31.80;11.73;;;;;;;-1.14;75.10;97234.94;5044127;28;20549;-55
2022/02/26 01:10:18;;;;;;;22.80;9.18;;;;;;;-1.46;74.81;97183.19;5045587;28;20431;-56
2022/02/26 01:12:45;;;;;;;22.48;9.02;;;;;;;-1.23;75.75;97220.41;5043454;28;20049;-55
2022/02/26 01:15:11;;;;;;;21.85;7.97;;;;;;;-1.18;75.64;97233.91;5044365;28;20515;-59
2022/02/26 01:17:38;;;;;;;21.27;8.43;;;;;;;-1.10;76.13;97230.53;5044750;28;20068;-58
2022/02/26 01:20:05;;;;;;;21.50;7.97;;;;;;;-1.05;76.06;97227.75;5044667;28;20051;-55
2022/02/26 01:22:32;;;;;;;26.75;7.03;;;;;;;-1.08;76.27;97228.34;5044279;28;20059;-58
2022/02/26 01:24:59;;;;;;;16.70;5.18;;;;;;;-1.40;76.53;97171.16;5044568;28;20053;-55
2022/02/26 01:27:26;;;;;;;22.92;6.18;;;;;;;-1.04;76.20;97213.09;5044676;28;20602;-55
2022/02/26 01:29:52;;;;;;;25.42;6.25;;;;;;;-0.94;77.41;97219.19;5044101;28;20061;-55
2022/02/26 01:32:19;;;;;;;24.92;6.28;;;;;;;-1.02;76.95;97216.31;5044140;28;20056;-58
2022/02/26 01:34:46;;;;;;;13.60;4.68;;;;;;;-1.27;76.76;97182.13;5044167;28;20150;-55
2022/02/26 01:37:13;;;;;;;20.67;5.93;;;;;;;-1.06;76.95;97226.16;5044217;28;20052;-56
2022/02/26 01:39:39;;;;;;;30.13;7.07;;;;;;;-1.07;76.43;97228.06;5044319;28;20056;-58
2022/02/26 01:42:06;;;;;;;14.00;4.47;;;;;;;-1.60;77.02;97124.13;5044612;28;20083;-58
2022/02/26 01:44:36;;;;;;;8.55;2.92;;;;;;;-0.96;76.72;97212.41;5044010;28;20293;-59
2022/02/26 01:47:05;;;;;;;11.45;3.75;;;;;;;-0.95;77.06;97205.88;5043810;28;20052;-55
2022/02/26 01:49:32;;;;;;;8.20;2.83;;;;;;;-0.98;78.08;97217.34;5042347;28;20182;-58
2022/02/26 01:51:58;;;;;;;12.63;4.05;;;;;;;-0.98;77.43;97222.78;5043822;28;20061;-58
2022/02/26 01:54:25;;;;;;;7.70;2.60;;;;;;;-0.91;76.94;97223.22;5043740;28;20128;-54
2022/02/26 01:56:53;;;;;;;15.98;5.25;;;;;;;-0.87;76.26;97219.63;5043843;28;20049;-60
2022/02/26 01:59:20;;;;;;;13.85;5.45;;;;;;;-0.86;75.23;97218.53;5043738;28;20052;-58
2022/02/26 02:01:47;;;;;;;17.45;5.88;;;;;;;-0.89;75.31;97234.63;5043972;28;20059;-59
2022/02/26 02:04:15;;;;;;;13.65;5.28;;;;;;;-0.92;75.77;97224.31;5043249;28;20056;-59
2022/02/26 02:06:43;;;;;;;15.93;5.15;;;;;;;-1.01;77.58;97240.47;5043321;28;20546;-59
2022/02/26 02:09:10;;;;;;;14.13;4.82;;;;;;;-0.97;77.42;97211.63;5043661;28;20048;-58
2022/02/26 02:11:37;;;;;;;20.38;7.30;;;;;;;-0.86;75.87;97215.00;5043253;28;20511;-59
2022/02/26 02:14:05;;;;;;;7.40;2.83;;;;;;;-1.52;75.82;97115.34;5041890;28;20059;-59
2022/02/26 02:16:35;;;;;;;42.00;9.98;;;;;;;-0.83;75.19;97225.28;5043297;28;20506;-59
2022/02/26 02:19:10;;;;;;;17.90;5.55;;;;;;;-0.87;75.38;97235.94;5043684;28;20053;-55
2022/02/26 02:21:38;;;;;;;15.68;5.13;;;;;;;-1.22;75.43;97162.22;5043511;28;20052;-55
2022/02/26 02:24:06;;;;;;;24.05;9.07;;;;;;;-1.66;75.38;97102.78;5043504;28;20071;-55
2022/02/26 02:26:34;;;;;;;9.38;3.20;;;;;;;-1.25;75.67;97162.81;5043390;28;20063;-59
2022/02/26 02:29:01;;;;;;;9.90;3.90;;;;;;;-0.89;75.69;97231.91;5043324;28;20056;-56
2022/02/26 02:31:29;;;;;;;14.50;7.72;;;;;;;-0.91;77.24;97229.47;5043317;28;20053;-58
2022/02/26 02:33:56;;;;;;;8.90;3.97;;;;;;;-1.21;77.96;97188.28;5043187;28;20048;-54
2022/02/26 02:36:23;;;;;;;9.88;3.30;;;;;;;-1.00;77.98;97235.84;5042106;28;20060;-58
2022/02/26 02:38:50;;;;;;;17.38;6.03;;;;;;;-0.89;77.38;97235.44;5047526;28;20055;-54
2022/02/26 02:41:18;;;;;;;14.60;5.40;;;;;;;-1.17;77.71;97189.34;5047220;28;20060;-55
2022/02/26 02:43:45;;;;;;;11.20;4.20;;;;;;;-0.98;77.67;97228.22;5047269;28;20064;-59
2022/02/26 02:46:12;;;;;;;11.95;4.10;;;;;;;-0.89;78.79;97232.72;5047346;28;20049;-58
2022/02/26 02:48:39;;;;;;;11.65;5.15;;;;;;;-0.88;78.48;97238.94;5046186;28;20049;-59
2022/02/26 02:51:05;;;;;;;11.95;4.57;;;;;;;-0.89;78.24;97238.16;5046282;28;20053;-54
2022/02/26 02:53:33;;;;;;;13.60;4.68;;;;;;;-1.04;78.13;97215.81;5045844;28;20056;-55
2022/02/26 02:56:00;;;;;;;11.23;4.57;;;;;;;-1.46;78.38;97156.03;5047394;28;20044;-58
2022/02/26 02:58:32;;;;;;;9.70;4.20;;;;;;;-1.35;78.62;97168.38;5045974;28;20055;-55
2022/02/26 03:00:58;;;;;;;8.52;2.92;;;;;;;-1.38;78.34;97163.53;5047089;28;20303;-55
2022/02/26 03:03:26;;;;;;;9.23;3.75;;;;;;;-0.91;76.99;97229.47;5047168;28;20057;-59
2022/02/26 03:05:53;;;;;;;16.92;4.60;;;;;;;-0.86;78.21;97234.84;5047182;28;20160;-58
2022/02/26 03:08:23;;;;;;;19.85;5.90;;;;;;;-1.30;77.72;97177.28;5046866;28;20060;-58
2022/02/26 03:10:54;;;;;;;19.77;6.70;;;;;;;-0.85;77.08;97238.34;5046191;28;20487;-54
2022/02/26 03:13:23;;;;;;;23.35;7.25;;;;;;;-0.91;77.33;97240.34;5046914;28;20057;-56
2022/02/26 03:15:51;;;;;;;16.10;5.07;;;;;;;-0.89;77.99;97243.59;5045420;28;20051;-58
2022/02/26 03:18:20;;;;;;;14.85;4.68;;;;;;;-0.88;77.85;97247.09;5046827;28;20142;-58
2022/02/26 03:20:47;;;;;;;11.63;4.05;;;;;;;-0.91;78.02;97250.41;5046329;28;20057;-57
2022/02/26 03:23:14;;;;;;;15.55;5.22;;;;;;;-0.99;77.39;97253.75;5046548;28;20063;-57
2022/02/26 03:25:41;;;;;;;13.98;5.38;;;;;;;-1.02;77.46;97248.91;5046185;28;20570;-55
2022/02/26 03:28:08;;;;;;;13.05;4.32;;;;;;;-0.90;77.68;97257.47;5045302;28;20533;-55
2022/02/26 03:30:34;;;;;;;11.15;4.70;;;;;;;-0.89;78.04;97251.75;5046501;28;20071;-58
2022/02/26 03:33:01;;;;;;;10.70;3.47;;;;;;;-0.89;78.31;97253.66;5046470;28;20048;-58
2022/02/26 03:35:28;;;;;;;12.50;4.75;;;;;;;-0.93;78.59;97264.28;5046384;28;20044;-55
2022/02/26 03:37:55;;;;;;;12.05;4.57;;;;;;;-0.88;78.43;97249.81;5044861;28;20057;-58
2022/02/26 03:40:22;;;;;;;11.20;3.90;;;;;;;-0.91;78.10;97264.00;5046219;28;20056;-59
2022/02/26 03:42:49;;;;;;;11.05;4.13;;;;;;;-0.96;78.11;97264.06;5046177;28;20500;-54
2022/02/26 03:45:16;;;;;;;13.77;4.32;;;;;;;-1.14;79.25;97259.41;5046403;28;20048;-55
2022/02/26 03:47:43;;;;;;;12.85;3.75;;;;;;;-1.65;79.71;97194.81;5046531;28;20056;-58
2022/02/26 03:50:11;;;;;;;7.72;2.60;;;;;;;-1.55;78.95;97219.13;5046123;28;20052;-58
2022/02/26 03:52:38;;;;;;;8.45;2.30;;;;;;;-1.11;78.78;97266.97;5046285;28;20134;-58
2022/02/26 03:55:06;;;;;;;10.23;2.67;;;;;;;-1.03;78.56;97264.44;5045910;28;20065;-58
2022/02/26 03:57:33;;;;;;;7.47;3.55;;;;;;;-1.29;76.83;97237.84;5045968;28;20049;-55
2022/02/26 04:00:00;;;;;;;13.68;5.20;;;;;;;-1.26;77.13;97281.53;5045680;28;20144;-57
2022/02/26 04:02:28;;;;;;;21.58;6.97;;;;;;;-1.21;77.18;97273.34;5045974;28;20064;-59
2022/02/26 04:04:55;;;;;;;17.33;6.60;;;;;;;-1.39;77.69;97276.00;5045898;28;20057;-55
2022/02/26 04:07:22;;;;;;;20.98;7.03;;;;;;;-1.45;79.05;97282.59;5046237;28;20060;-59
2022/02/26 04:09:48;;;;;;;26.00;8.93;;;;;;;-2.10;79.11;97184.44;5046417;28;20075;-59
2022/02/26 04:12:17;;;;;;;33.72;12.50;;;;;;;-1.45;79.71;97282.59;5046425;28;20057;-58
2022/02/26 04:14:44;;;;;;;39.22;17.95;;;;;;;-1.41;78.99;97289.06;5045744;28;20049;-57
2022/02/26 04:17:10;;;;;;;29.80;12.30;;;;;;;-1.36;78.77;97281.69;5045640;28;20072;-55
2022/02/26 04:19:38;;;;;;;32.88;14.77;;;;;;;-1.38;79.50;97283.03;5045593;28;20342;-56
2022/02/26 04:22:05;;;;;;;49.47;18.88;;;;;;;-1.25;80.16;97293.22;5045885;28;20057;-57
2022/02/26 04:24:31;;;;;;;70.32;25.63;;;;;;;-1.63;79.41;97233.31;5045588;28;20056;-59
2022/02/26 04:26:59;;;;;;;53.03;19.30;;;;;;;-1.33;78.38;97291.16;5045322;28;20440;-55
2022/02/26 04:29:25;;;;;;;34.58;14.32;;;;;;;-1.22;79.37;97298.09;5045181;28;20519;-57
2022/02/26 04:31:52;;;;;;;29.20;10.60;;;;;;;-1.20;79.34;97301.34;5045312;28;20060;-55
2022/02/26 04:34:19;;;;;;;14.00;5.32;;;;;;;-1.13;78.58;97296.34;5045307;28;20049;-56
2022/02/26 04:36:46;;;;;;;15.25;4.50;;;;;;;-1.25;78.10;97304.09;5045630;28;20056;-58
2022/02/26 04:39:12;;;;;;;12.18;4.78;;;;;;;-1.36;79.59;97308.84;5045315;28;20052;-59
2022/02/26 04:41:39;;;;;;;15.07;6.07;;;;;;;-1.47;79.90;97303.78;5045389;28;20136;-58
2022/02/26 04:44:06;;;;;;;18.63;6.53;;;;;;;-1.48;80.80;97299.44;5043546;28;20502;-58
2022/02/26 04:46:33;;;;;;;24.50;8.68;;;;;;;-1.39;79.15;97309.38;5044830;28;20420;-58
2022/02/26 04:48:59;;;;;;;17.75;6.63;;;;;;;-1.30;78.59;97315.00;5045109;28;20091;-57
2022/02/26 04:51:26;;;;;;;19.50;7.03;;;;;;;-1.55;78.89;97278.09;5045417;28;20053;-55
2022/02/26 04:53:55;;;;;;;25.25;7.97;;;;;;;-1.79;79.98;97267.16;5045225;28;20056;-55
2022/02/26 04:56:22;;;;;;;14.40;6.40;;;;;;;-1.45;81.01;97309.75;5045571;28;20055;-59
2022/02/26 04:58:49;;;;;;;8.85;3.45;;;;;;;-1.59;81.52;97310.44;5045563;28;20064;-54
2022/02/26 05:01:15;;;;;;;13.73;4.75;;;;;;;-1.39;80.82;97330.34;5044191;28;20060;-56
2022/02/26 05:03:43;;;;;;;11.85;5.20;;;;;;;-1.37;81.67;97330.84;5044567;28;20041;-54
2022/02/26 05:06:10;;;;;;;20.38;7.88;;;;;;;-1.32;80.94;97336.22;5044790;28;20059;-58
2022/02/26 05:08:37;;;;;;;20.80;8.35;;;;;;;-1.25;80.47;97342.97;5044642;28;20056;-59
2022/02/26 05:11:03;;;;;;;25.20;8.45;;;;;;;-1.19;81.26;97340.97;5043724;28;20056;-57
2022/02/26 05:13:30;;;;;;;19.25;8.80;;;;;;;-1.49;80.16;97286.97;5044402;28;20523;-58
2022/02/26 05:15:57;;;;;;;37.97;12.52;;;;;;;-1.18;78.79;97323.56;5043382;28;20150;-54
2022/02/26 05:18:24;;;;;;;26.67;10.65;;;;;;;-1.07;78.00;97363.13;5044428;28;20395;-55
2022/02/26 05:20:50;;;;;;;33.72;13.52;;;;;;;-1.21;77.88;97337.72;5044115;28;20425;-58
2022/02/26 05:23:17;;;;;;;28.67;12.57;;;;;;;-1.32;77.55;97309.06;5044895;28;20053;-58
2022/02/26 05:25:44;;;;;;;41.53;16.52;;;;;;;-1.48;77.27;97310.31;5043015;28;20135;-59
2022/02/26 05:28:10;;;;;;;21.27;9.75;;;;;;;-1.02;78.53;97360.34;5044358;28;20514;-58
2022/02/26 05:30:37;;;;;;;28.30;10.00;;;;;;;-1.06;77.81;97334.88;5044620;28;20052;-57
2022/02/26 05:33:06;;;;;;;24.27;9.70;;;;;;;-1.41;79.04;97343.38;5043865;28;20049;-55
2022/02/26 05:35:33;;;;;;;46.75;18.13;;;;;;;-1.13;78.71;97367.00;5043820;28;20049;-58
2022/02/26 05:38:00;;;;;;;32.22;14.07;;;;;;;-0.88;78.39;97369.44;5042546;28;20052;-57
2022/02/26 05:40:26;;;;;;;35.50;12.93;;;;;;;-1.96;76.63;97228.78;5044071;28;20049;-56
2022/02/26 05:42:53;;;;;;;28.17;11.20;;;;;;;-0.75;76.55;97357.88;5043802;28;20076;-54
2022/02/26 05:45:20;;;;;;;40.92;16.02;;;;;;;-0.47;75.56;97387.72;5043922;28;20057;-55
2022/02/26 05:47:47;;;;;;;38.45;19.33;;;;;;;-0.94;75.88;97294.47;5044172;28;20101;-57
2022/02/26 05:50:14;;;;;;;57.83;25.67;;;;;;;-0.72;74.64;97308.34;5043714;28;20053;-54
2022/02/26 05:52:42;;;;;;;56.13;24.83;;;;;;;-0.16;74.08;97399.78;5044304;28;20078;-57
2022/02/26 05:55:09;;;;;;;29.95;13.60;;;;;;;-0.01;75.03;97390.63;5043996;28;20048;-55
2022/02/26 05:57:36;;;;;;;18.42;8.50;;;;;;;-0.11;75.24;97379.84;5043624;28;20049;-55
2022/02/26 06:00:05;;;;;;;19.73;7.13;;;;;;;0.21;73.88;97396.28;5043456;28;20542;-59
2022/02/26 06:02:33;;;;;;;17.45;7.40;;;;;;;0.13;73.96;97380.59;5043663;28;20521;-56
2022/02/26 06:05:00;;;;;;;18.60;7.53;;;;;;;0.44;72.82;97397.28;5038312;28;20073;-53
2022/02/26 06:07:27;;;;;;;19.80;9.38;;;;;;;0.65;72.60;97388.47;5042696;28;20052;-58
2022/02/26 06:09:53;;;;;;;38.70;12.15;;;;;;;0.91;71.47;97392.38;5042762;28;20049;-59
2022/02/26 06:12:20;;;;;;;40.00;13.40;;;;;;;1.00;70.84;97390.59;5042198;28;20055;-58
2022/02/26 06:14:47;;;;;;;34.63;13.07;;;;;;;1.15;69.96;97420.31;5042108;28;20049;-56
2022/02/26 06:17:13;;;;;;;59.80;21.42;;;;;;;1.32;69.77;97400.63;5039063;28;20052;-58
2022/02/26 06:19:40;;;;;;;58.33;22.67;;;;;;;1.61;68.59;97400.31;5042730;28;20416;-56
2022/02/26 06:22:07;;;;;;;53.95;22.77;;;;;;;1.83;66.79;97397.66;5042912;28;20056;-57
2022/02/26 06:24:34;;;;;;;59.50;24.58;;;;;;;1.69;66.16;97353.19;5042475;28;20060;-60
2022/02/26 06:27:02;;;;;;;48.20;21.27;;;;;;;2.25;66.24;97422.66;5040284;28;20083;-54
2022/02/26 06:29:29;;;;;;;40.95;15.95;;;;;;;2.49;64.06;97411.47;5038859;28;20555;-57
2022/02/26 06:31:56;;;;;;;30.40;13.55;;;;;;;2.67;63.99;97403.06;5039470;28;20060;-58
2022/02/26 06:34:24;;;;;;;42.53;17.38;;;;;;;2.89;63.31;97405.00;5040529;28;20052;-58
2022/02/26 06:36:51;;;;;;;49.15;19.17;;;;;;;2.97;63.90;97401.53;5040978;28;20049;-54
2022/02/26 06:39:17;;;;;;;49.17;18.73;;;;;;;3.15;63.67;97403.22;5041674;28;20053;-55
2022/02/26 06:41:44;;;;;;;41.67;17.52;;;;;;;3.22;63.02;97409.06;5042853;28;20071;-58
2022/02/26 06:44:11;;;;;;;48.28;19.35;;;;;;;2.87;62.74;97342.41;5039920;28;20051;-56
2022/02/26 06:46:38;;;;;;;44.60;19.08;;;;;;;3.35;61.77;97419.09;5030938;28;20041;-55
2022/02/26 06:49:05;;;;;;;39.78;16.55;;;;;;;3.27;61.40;97384.31;5041837;28;20139;-55
2022/02/26 06:51:32;;;;;;;36.35;15.55;;;;;;;3.65;59.85;97418.25;5040265;28;20435;-58
2022/02/26 06:54:00;;;;;;;32.08;13.07;;;;;;;3.95;58.32;97422.88;5041554;28;20049;-60
2022/02/26 06:56:27;;;;;;;30.88;12.65;;;;;;;3.84;57.00;97361.28;5041980;28;20052;-58
2022/02/26 06:58:54;;;;;;;32.17;13.82;;;;;;;4.26;56.97;97412.63;5039976;28;20462;-57
2022/02/26 07:01:21;;;;;;;26.98;11.02;;;;;;;4.59;56.23;97411.03;5039654;28;20052;-59
2022/02/26 07:03:48;;;;;;;21.92;9.63;;;;;;;4.81;55.67;97422.94;5042072;28;20404;-57
2022/02/26 07:06:17;;;;;;;21.95;9.52;;;;;;;4.76;55.33;97388.25;5042115;28;20056;-58
2022/02/26 07:08:43;;;;;;;19.67;8.38;;;;;;;5.09;54.36;97418.75;5040245;28;20048;-56
2022/02/26 07:11:10;;;;;;;17.25;6.70;;;;;;;4.94;53.98;97378.06;5040805;28;20078;-58
2022/02/26 07:13:37;;;;;;;16.98;6.63;;;;;;;5.35;54.00;97427.72;5041394;28;20055;-60
2022/02/26 07:16:04;;;;;;;15.77;6.68;;;;;;;5.41;54.67;97426.41;5040641;28;20060;-55
2022/02/26 07:18:31;;;;;;;21.45;7.88;;;;;;;5.52;55.77;97427.66;5041132;28;20060;-59
2022/02/26 07:20:58;;;;;;;16.25;7.80;;;;;;;5.63;54.04;97424.22;5040973;28;20056;-57
2022/02/26 07:23:24;;;;;;;25.08;8.80;;;;;;;5.74;53.79;97430.97;5042857;28;20431;-59
2022/02/26 07:25:51;;;;;;;20.45;8.15;;;;;;;5.68;53.85;97423.25;5045615;28;20049;-57
2022/02/26 07:28:18;;;;;;;16.00;7.95;;;;;;;4.84;53.09;97285.13;5043777;28;20053;-58
2022/02/26 07:30:52;;;;;;;18.70;8.88;;;;;;;5.57;54.26;97411.81;5045348;28;20071;-56
2022/02/26 07:33:19;;;;;;;17.33;6.97;;;;;;;5.40;53.59;97347.88;5040666;28;20160;-60
2022/02/26 07:35:46;;;;;;;34.47;13.60;;;;;;;5.63;54.77;97357.47;5043094;28;20536;-55
2022/02/26 07:38:13;;;;;;;54.63;17.58;;;;;;;5.83;57.31;97373.25;5044153;28;20170;-60
2022/02/26 07:40:42;;;;;;;37.70;14.48;;;;;;;6.03;57.75;97389.78;5043750;28;20045;-61
2022/02/26 07:43:10;;;;;;;41.28;12.63;;;;;;;5.85;57.57;97321.47;5044049;28;20063;-57
2022/02/26 07:45:37;;;;;;;33.72;12.18;;;;;;;6.08;57.32;97339.31;5045887;28;20442;-54
2022/02/26 07:48:04;;;;;;;25.02;10.90;;;;;;;6.54;57.06;97402.41;5045586;28;20060;-58
2022/02/26 07:50:31;;;;;;;17.58;7.05;;;;;;;6.61;52.81;97393.59;5044930;28;20456;-56
2022/02/26 07:52:58;;;;;;;11.38;6.00;;;;;;;6.58;52.23;97378.56;5044132;28;20427;-55
2022/02/26 07:55:25;;;;;;;11.55;4.95;;;;;;;6.81;51.71;97410.09;5043382;28;20114;-61
2022/02/26 07:57:52;;;;;;;9.68;3.40;;;;;;;6.93;51.88;97410.16;5042939;28;20048;-58
2022/02/26 08:00:19;;;;;;;7.93;3.42;;;;;;;7.07;50.42;97402.41;5042847;28;20048;-57
2022/02/26 08:02:45;;;;;;;7.60;2.85;;;;;;;7.09;49.15;97389.09;5043530;28;20426;-54
2022/02/26 08:05:12;;;;;;;7.45;2.40;;;;;;;6.88;48.49;97341.53;5043133;28;20056;-55
2022/02/26 08:07:45;;;;;;;6.90;2.35;;;;;;;7.47;48.47;97389.66;5044277;28;20049;-58
2022/02/26 08:10:12;;;;;;;10.35;3.50;;;;;;;7.28;48.40;97341.75;5042217;28;20630;-57
2022/02/26 08:12:40;;;;;;;6.15;2.60;;;;;;;7.55;49.04;97396.22;5042032;28;20132;-57
2022/02/26 08:15:07;;;;;;;3.65;1.63;;;;;;;7.62;48.44;97397.25;5042826;28;20053;-56
2022/02/26 08:17:34;;;;;;;4.32;2.70;;;;;;;7.79;48.46;97362.34;5043292;28;20500;-57
2022/02/26 08:20:02;;;;;;;26.48;9.27;;;;;;;7.91;47.60;97337.53;5044839;28;20041;-57
2022/02/26 08:22:29;;;;;;;7.03;3.15;;;;;;;8.66;47.14;97380.91;5044696;28;20110;-56
2022/02/26 08:24:56;;;;;;;6.45;3.65;;;;;;;8.98;45.65;97382.59;5043939;28;20509;-58
2022/02/26 08:27:22;;;;;;;31.05;9.68;;;;;;;9.37;45.43;97373.47;5043356;28;20151;-56
2022/02/26 08:29:49;;;;;;;10.25;4.78;;;;;;;9.64;43.28;97377.31;5043868;28;20056;-59
2022/02/26 08:32:16;;;;;;;6.05;2.28;;;;;;;9.39;43.15;97321.34;5044161;28;20120;-60
2022/02/26 08:34:42;;;;;;;7.70;3.30;;;;;;;9.99;42.43;97361.59;5043950;28;20055;-59
2022/02/26 08:37:09;;;;;;;5.10;2.85;;;;;;;9.94;43.27;97332.22;5042319;28;20053;-60
2022/02/26 08:39:36;;;;;;;6.13;2.85;;;;;;;10.54;43.74;97373.22;5044903;28;20053;-59
2022/02/26 08:42:04;;;;;;;7.32;2.45;;;;;;;10.77;41.75;97375.28;5043841;28;20045;-60
2022/02/26 08:44:31;;;;;;;6.10;3.17;;;;;;;10.92;40.70;97377.19;5042577;28;20065;-57
2022/02/26 08:46:59;;;;;;;4.80;1.80;;;;;;;10.60;37.17;97316.38;5037490;28;20140;-55
2022/02/26 08:49:26;;;;;;;15.52;5.65;;;;;;;11.00;37.83;97374.19;5044482;28;20152;-57
2022/02/26 08:51:54;;;;;;;25.27;8.40;;;;;;;11.18;37.83;97364.28;5043895;28;20052;-58
2022/02/26 08:54:20;;;;;;;6.75;3.00;;;;;;;11.27;38.06;97373.16;5042005;28;20045;-56
2022/02/26 08:56:48;;;;;;;4.93;2.70;;;;;;;10.97;38.03;97377.69;5043085;28;20510;-58
2022/02/26 08:59:14;;;;;;;5.32;2.13;;;;;;;10.33;39.32;97381.06;5043146;28;20132;-60
2022/02/26 09:01:42;;;;;;;8.88;3.03;;;;;;;10.15;39.25;97321.69;5043733;28;20057;-56
2022/02/26 09:04:09;;;;;;;5.45;2.28;;;;;;;10.05;40.42;97377.56;5044146;28;20059;-59
2022/02/26 09:06:36;;;;;;;18.50;6.47;;;;;;;10.32;39.91;97376.66;5044072;28;20089;-59
2022/02/26 09:09:08;;;;;;;12.60;4.75;;;;;;;10.26;39.57;97322.72;5042350;28;20052;-58
2022/02/26 09:11:36;;;;;;;8.73;3.97;;;;;;;10.59;39.39;97361.84;5042603;28;20455;-59
2022/02/26 09:14:04;;;;;;;5.80;3.08;;;;;;;10.46;40.26;97357.59;5043641;28;20057;-61
2022/02/26 09:16:32;;;;;;;3.78;2.38;;;;;;;10.11;39.82;97326.34;5042917;28;20143;-56
2022/02/26 09:18:59;;;;;;;6.68;2.90;;;;;;;10.45;38.90;97364.31;5042173;28;20110;-56
2022/02/26 09:21:26;;;;;;;8.70;3.53;;;;;;;10.50;40.10;97366.78;5043146;28;20343;-55
2022/02/26 09:23:53;;;;;;;5.75;2.80;;;;;;;10.30;39.87;97345.78;5042047;28;20059;-55
2022/02/26 09:26:19;;;;;;;5.50;2.60;;;;;;;10.03;39.91;97352.22;5042754;28;20060;-55
2022/02/26 09:28:47;;;;;;;8.50;3.00;;;;;;;10.15;39.89;97345.78;5039659;28;20053;-61
2022/02/26 09:31:14;;;;;;;3.60;2.15;;;;;;;10.26;40.40;97371.75;5040197;28;20053;-55
2022/02/26 09:33:42;;;;;;;6.25;2.00;;;;;;;10.53;38.40;97366.06;5040344;28;20119;-55
2022/02/26 09:36:09;;;;;;;4.40;1.95;;;;;;;10.68;37.75;97356.91;5041562;28;20045;-56
2022/02/26 09:38:38;;;;;;;4.78;2.45;;;;;;;10.78;37.48;97369.38;5040429;28;20053;-65
2022/02/26 09:41:06;;;;;;;6.45;2.45;;;;;;;10.29;38.37;97338.63;5040898;28;20067;-55
2022/02/26 09:43:33;;;;;;;5.40;2.50;;;;;;;10.52;37.79;97358.94;5041070;28;20055;-62
2022/02/26 09:46:02;;;;;;;3.03;1.90;;;;;;;10.95;35.51;97357.88;5040199;28;20057;-62
2022/02/26 09:48:30;;;;;;;2.75;1.42;;;;;;;10.79;35.60;97351.59;5032991;28;20049;-62
2022/02/26 09:50:57;;;;;;;3.80;2.45;;;;;;;10.23;36.71;97240.41;5040727;28;20055;-58
2022/02/26 09:53:24;;;;;;;5.63;2.97;;;;;;;10.67;37.40;97338.69;5043304;28;20057;-61
2022/02/26 09:55:52;;;;;;;7.28;2.42;;;;;;;11.13;36.91;97347.16;5042992;28;20063;-60
2022/02/26 09:58:19;;;;;;;5.07;2.55;;;;;;;11.58;35.45;97338.88;5037730;28;20576;-59
2022/02/26 10:00:47;;;;;;;4.65;2.08;;;;;;;11.10;35.17;97220.31;5040838;28;20060;-59
2022/02/26 10:03:36;;;;;;;6.70;2.83;;;;;;;11.99;34.75;97332.47;5040501;28;20146;-60
2022/02/26 10:06:17;;;;;;;4.57;2.40;;;;;;;12.23;34.21;97334.84;5038265;28;20451;-61
2022/02/26 10:08:49;;;;;;;9.10;2.78;;;;;;;12.48;34.46;97327.66;5033160;28;20059;-59
2022/02/26 10:11:28;;;;;;;17.33;6.03;;;;;;;12.61;34.22;97325.44;5039186;28;20177;-59
2022/02/26 10:14:05;;;;;;;7.32;3.90;;;;;;;12.69;34.19;97316.84;5039378;28;20056;-57
2022/02/26 10:16:55;;;;;;;7.80;2.85;;;;;;;12.68;34.31;97318.00;5041869;28;20117;-61
2022/02/26 10:19:25;;;;;;;3.88;2.58;;;;;;;12.84;33.51;97310.28;5031594;28;20055;-56
2022/02/26 10:21:59;;;;;;;8.10;3.72;;;;;;;12.83;33.82;97317.00;5039736;28;20545;-57
2022/02/26 10:24:29;;;;;;;8.93;3.58;;;;;;;12.64;33.86;97244.91;5041603;28;20577;-59
2022/02/26 10:27:03;;;;;;;6.25;2.92;;;;;;;12.97;33.92;97311.63;5042252;28;20049;-59
2022/02/26 10:29:31;;;;;;;6.85;2.47;;;;;;;12.23;34.04;97315.38;5042440;28;20057;-61
2022/02/26 10:31:59;;;;;;;6.15;2.50;;;;;;;12.14;32.94;97223.19;5042050;28;20052;-56
2022/02/26 10:34:28;;;;;;;6.45;1.80;;;;;;;12.28;32.46;97311.47;5042803;28;20165;-57
2022/02/26 10:37:01;;;;;;;2.53;1.85;;;;;;;12.68;32.04;97309.66;5042929;28;20064;-56
2022/02/26 10:39:43;;;;;;;7.35;2.33;;;;;;;12.53;32.89;97310.66;5043156;28;20083;-55
2022/02/26 10:42:18;;;;;;;4.13;2.05;;;;;;;12.63;32.42;97312.75;5042821;28;20064;-59
2022/02/26 10:44:45;;;;;;;5.97;2.83;;;;;;;12.93;32.42;97305.22;5041617;28;20057;-57
2022/02/26 10:47:14;;;;;;;4.25;2.53;;;;;;;13.18;31.14;97306.31;5043313;28;20049;-61
2022/02/26 10:49:47;;;;;;;5.63;2.47;;;;;;;13.42;31.21;97294.66;5043278;28;20477;-58
2022/02/26 10:52:15;;;;;;;;;;;;;;;13.62;30.67;97290.47;5043888;28;20045;-57
2022/02/26 10:54:43;;;;;;;7.20;2.25;;;;;;;12.93;30.91;97246.81;5042697;28;19925;-56
2022/02/26 10:57:12;;;;;;;4.00;2.25;;;;;;;13.36;30.67;97295.38;5042956;28;20053;-59
2022/02/26 10:59:41;;;;;;;3.33;1.42;;;;;;;12.36;31.87;97293.75;5046668;28;20053;-58
2022/02/26 11:02:25;;;;;;;4.32;2.10;;;;;;;12.83;32.00;97294.78;5046544;28;20049;-57
2022/02/26 11:04:54;;;;;;;5.97;2.40;;;;;;;13.09;31.60;97286.34;5045618;28;20059;-58
2022/02/26 11:07:22;;;;;;;3.33;2.00;;;;;;;13.38;30.76;97291.06;5046646;28;20045;-59
2022/02/26 11:09:53;;;;;;;4.50;1.65;;;;;;;13.53;30.59;97278.09;5046361;28;20129;-59
2022/02/26 11:12:24;;;;;;;5.05;2.17;;;;;;;13.09;31.41;97286.34;5046483;28;20053;-57
2022/02/26 11:14:58;;;;;;;4.80;1.95;;;;;;;13.35;31.88;97286.25;5046947;28;20049;-58
2022/02/26 11:17:26;;;;;;;5.28;1.98;;;;;;;13.57;30.75;97288.06;5046672;28;20064;-58
2022/02/26 11:20:01;;;;;;;5.30;2.05;;;;;;;13.74;30.69;97277.47;5046085;28;20056;-59
2022/02/26 11:22:27;;;;;;;4.15;2.03;;;;;;;13.59;30.94;97274.53;5045829;28;20056;-58
2022/02/26 11:24:55;;;;;;;3.92;2.10;;;;;;;13.68;30.06;97286.16;5044481;28;20053;-58
2022/02/26 11:27:25;;;;;;;4.30;2.53;;;;;;;14.01;30.76;97287.19;5044581;28;20049;-58
2022/02/26 11:29:54;;;;;;;8.35;3.65;;;;;;;13.74;31.30;97280.25;5046662;28;20076;-60
2022/02/26 11:32:23;;;;;;;7.25;3.15;;;;;;;13.68;30.03;97286.16;5046611;28;20064;-58